Time;durP1;ratioP1;P1;durP2;ratioP2;P2;SDS_P1;SDS_P2;PMS_P1;PMS_P2;Temp;Humidity;BMP_temperature;BMP_pressure;BME280_temperature;BME280_humidity;BME280_pressure;Samples;Min_cycle;Max_cycle;Signal;HPM_P1;HPM_P2
2022/09/03 00:00:56;;;;;;;11.43;7.53;;;;;;;15.13;51.37;100410.30;1773883;80;21086;-76
2022/09/03 00:03:43;;;;;;;9.60;7.20;;;;;;;15.11;51.67;100410.98;1721949;81;21080;-74
2022/09/03 00:06:21;;;;;;;9.58;6.97;;;;;;;15.10;51.69;100413.36;1753002;81;21055;-74
2022/09/03 00:09:11;;;;;;;11.08;6.85;;;;;;;15.08;51.62;100414.02;1723131;83;21057;-75
2022/09/03 00:12:08;;;;;;;11.53;7.30;;;;;;;15.07;51.92;100419.57;1749109;80;21068;-75
2022/09/03 00:14:43;;;;;;;9.15;6.42;;;;;;;15.05;51.87;100421.59;1744331;81;21028;-75
2022/09/03 00:17:34;;;;;;;10.82;6.70;;;;;;;15.01;51.68;100423.80;1728142;80;21768;-73
2022/09/03 00:20:12;;;;;;;8.45;6.25;;;;;;;14.97;51.78;100422.50;1726025;80;21088;-72
2022/09/03 00:22:43;;;;;;;9.40;6.75;;;;;;;14.93;51.92;100420.69;1741034;80;21541;-73
2022/09/03 00:25:14;;;;;;;10.58;6.83;;;;;;;14.90;52.11;100420.20;1736563;80;21550;-71
2022/09/03 00:27:42;;;;;;;9.15;6.80;;;;;;;14.86;52.50;100422.92;1715062;81;21053;-75
2022/09/03 00:30:13;;;;;;;8.25;6.05;;;;;;;14.77;52.68;100420.80;1692065;81;21225;-74
2022/09/03 00:32:49;;;;;;;9.50;7.08;;;;;;;14.66;53.08;100419.39;1713765;83;21005;-74
2022/09/03 00:35:24;;;;;;;11.22;6.28;;;;;;;14.61;53.22;100419.08;1735789;80;21076;-73
2022/09/03 00:37:52;;;;;;;7.37;6.45;;;;;;;14.64;53.25;100421.89;1737153;81;21120;-74
2022/09/03 00:40:48;;;;;;;9.35;6.45;;;;;;;14.64;53.07;100417.41;1716583;83;21110;-74
2022/09/03 00:43:46;;;;;;;8.63;5.83;;;;;;;14.64;53.10;100414.73;1713117;83;21170;-73
2022/09/03 00:46:27;;;;;;;10.72;6.35;;;;;;;14.64;53.05;100420.08;1740261;80;21057;-72
2022/09/03 00:49:26;;;;;;;10.03;6.90;;;;;;;14.63;53.01;100417.58;1726239;81;22257;-72
2022/09/03 00:52:04;;;;;;;10.18;6.25;;;;;;;14.66;52.83;100419.87;1738886;80;21579;-75
2022/09/03 00:55:04;;;;;;;9.65;6.58;;;;;;;14.68;52.56;100415.17;1739947;81;21485;-74
2022/09/03 00:58:05;;;;;;;11.83;6.08;;;;;;;14.69;52.45;100415.01;1729908;80;21064;-74
2022/09/03 01:00:36;;;;;;;9.33;6.05;;;;;;;14.71;52.42;100412.98;1718298;80;21159;-75
2022/09/03 01:03:33;;;;;;;10.95;6.58;;;;;;;14.73;52.36;100416.31;1690561;82;21088;-75
2022/09/03 01:06:25;;;;;;;8.83;6.08;;;;;;;14.74;52.23;100417.16;1709446;81;21055;-76
2022/09/03 01:09:08;;;;;;;10.88;6.35;;;;;;;14.74;52.12;100414.48;1730825;81;21014;-75
2022/09/03 01:12:21;;;;;;;10.68;7.05;;;;;;;14.73;52.08;100413.63;1709860;82;21551;-75
2022/09/03 01:15:12;;;;;;;13.48;6.72;;;;;;;14.74;52.07;100416.65;1733737;82;21185;-71
2022/09/03 01:17:58;;;;;;;9.25;6.15;;;;;;;14.75;52.06;100422.31;1724328;81;21106;-72
2022/09/03 01:20:37;;;;;;;11.10;6.58;;;;;;;14.74;52.09;100412.64;1737032;81;20998;-73
2022/09/03 01:23:19;;;;;;;11.85;6.50;;;;;;;14.73;52.13;100417.64;1698262;81;21552;-72
2022/09/03 01:26:07;;;;;;;15.50;8.03;;;;;;;14.73;52.29;100413.63;1723958;81;21971;-75
2022/09/03 01:29:04;;;;;;;18.67;7.15;;;;;;;14.77;52.25;100420.80;1711655;81;21566;-72
2022/09/03 01:32:01;;;;;;;12.55;7.40;;;;;;;14.73;52.38;100420.32;1704575;81;21550;-74
2022/09/03 01:34:46;;;;;;;14.15;7.80;;;;;;;14.72;52.52;100424.02;1735821;82;21148;-76
2022/09/03 01:37:33;;;;;;;12.13;6.97;;;;;;;14.72;52.66;100424.53;1730664;81;21067;-73
2022/09/03 01:40:29;;;;;;;17.52;7.60;;;;;;;14.72;52.97;100421.86;1740026;81;21111;-73
2022/09/03 01:43:13;;;;;;;16.10;7.35;;;;;;;14.73;52.64;100417.64;1719800;81;21093;-74
2022/09/03 01:45:52;;;;;;;20.85;7.60;;;;;;;14.73;52.53;100424.33;1698758;82;22437;-73
2022/09/03 01:48:39;;;;;;;17.37;7.12;;;;;;;14.74;52.38;100421.17;1719539;82;21031;-74
2022/09/03 01:51:11;;;;;;;16.17;6.97;;;;;;;14.73;52.36;100419.50;1716726;81;21114;-74
2022/09/03 01:53:58;;;;;;;13.98;7.37;;;;;;;14.76;52.41;100421.83;1731572;81;21864;-76
2022/09/03 01:56:49;;;;;;;14.68;7.37;;;;;;;14.79;52.29;100422.79;1732481;81;21505;-73
2022/09/03 01:59:36;;;;;;;17.05;6.90;;;;;;;14.80;52.37;100419.11;1733179;81;20994;-74
2022/09/03 02:02:18;;;;;;;17.70;7.17;;;;;;;14.82;52.77;100418.94;1721628;81;21053;-75
2022/09/03 02:04:43;;;;;;;17.35;8.00;;;;;;;14.83;53.04;100417.91;1725853;81;21083;-73
2022/09/03 02:07:09;;;;;;;15.80;7.60;;;;;;;14.84;53.07;100414.25;1686751;81;21232;-77
2022/09/03 02:09:36;;;;;;;15.30;6.90;;;;;;;14.84;53.37;100412.39;1709158;82;21018;-74
2022/09/03 02:12:10;;;;;;;15.28;7.40;;;;;;;14.86;53.25;100414.89;1715817;83;21008;-76
2022/09/03 02:14:37;;;;;;;14.28;7.10;;;;;;;14.86;53.15;100417.57;1705936;81;21032;-74
2022/09/03 02:17:03;;;;;;;9.53;6.80;;;;;;;14.88;53.48;100424.91;1712148;81;21054;-73
2022/09/03 02:19:33;;;;;;;13.68;7.15;;;;;;;14.87;53.77;100417.40;1715883;81;21060;-73
2022/09/03 02:22:00;;;;;;;14.55;7.58;;;;;;;14.88;53.87;100415.55;1720604;81;21081;-75
2022/09/03 02:24:27;;;;;;;13.28;7.35;;;;;;;14.88;53.94;100423.57;1701138;81;21017;-73
2022/09/03 02:26:54;;;;;;;12.23;7.35;;;;;;;14.84;53.92;100419.59;1694508;83;21569;-75
2022/09/03 02:29:21;;;;;;;16.25;8.95;;;;;;;14.83;54.02;100422.75;1696752;83;21068;-73
2022/09/03 02:31:48;;;;;;;13.00;8.83;;;;;;;14.81;54.34;100423.95;1715114;81;21285;-72
2022/09/03 02:34:14;;;;;;;15.23;8.70;;;;;;;14.78;54.47;100419.80;1718277;81;21101;-73
2022/09/03 02:36:45;;;;;;;12.95;8.08;;;;;;;14.79;54.45;100424.64;1696566;83;21053;-74
2022/09/03 02:39:13;;;;;;;12.00;7.58;;;;;;;14.78;54.54;100421.66;1718084;81;20994;-74
2022/09/03 02:41:40;;;;;;;12.43;7.95;;;;;;;14.77;54.48;100418.64;1701102;83;21122;-74
2022/09/03 02:44:24;;;;;;;14.07;8.30;;;;;;;14.78;54.47;100421.14;1710156;82;21160;-75
2022/09/03 02:46:57;;;;;;;14.78;8.70;;;;;;;14.77;54.79;100424.81;1732043;82;21050;-75
2022/09/03 02:49:23;;;;;;;14.20;7.58;;;;;;;14.78;54.82;100428.34;1722176;80;21049;-76
2022/09/03 02:51:51;;;;;;;15.18;8.10;;;;;;;14.74;54.88;100423.34;1707429;83;21081;-74
2022/09/03 02:54:18;;;;;;;12.33;7.83;;;;;;;14.71;55.04;100424.20;1693359;83;21079;-75
2022/09/03 02:56:47;;;;;;;13.43;8.25;;;;;;;14.67;55.23;100429.06;1701745;83;21765;-75
2022/09/03 02:59:12;;;;;;;11.90;8.28;;;;;;;14.69;55.43;100420.87;1736570;81;21409;-74
2022/09/03 03:01:39;;;;;;;11.78;8.53;;;;;;;14.69;55.70;100424.36;1746370;81;21043;-74
2022/09/03 03:04:05;;;;;;;13.20;8.90;;;;;;;14.69;55.66;100423.55;1732411;81;21075;-74
2022/09/03 03:06:32;;;;;;;16.75;8.30;;;;;;;14.68;55.43;100424.05;1728653;81;21138;-74
2022/09/03 03:08:59;;;;;;;11.83;7.55;;;;;;;14.68;55.39;100425.88;1737420;81;21220;-73
2022/09/03 03:11:26;;;;;;;12.20;7.92;;;;;;;14.67;55.20;100430.40;1724938;81;21034;-74
2022/09/03 03:13:54;;;;;;;11.97;7.50;;;;;;;14.68;55.18;100427.21;1741158;81;21042;-73
2022/09/03 03:16:20;;;;;;;11.50;7.28;;;;;;;14.67;55.17;100429.06;1729681;82;21518;-74
2022/09/03 03:18:49;;;;;;;11.73;8.15;;;;;;;14.66;55.48;100430.56;1727349;83;21311;-74
2022/09/03 03:21:17;;;;;;;12.85;8.20;;;;;;;14.64;55.47;100428.09;1729271;81;21209;-74
2022/09/03 03:23:44;;;;;;;12.43;8.45;;;;;;;14.61;55.56;100435.12;1706646;82;21109;-75
2022/09/03 03:26:13;;;;;;;13.75;7.67;;;;;;;14.60;55.59;100432.63;1790373;80;20992;-75
2022/09/03 03:28:41;;;;;;;11.75;7.95;;;;;;;14.61;55.63;100438.31;1786209;78;20983;-74
2022/09/03 03:31:13;;;;;;;11.50;8.05;;;;;;;14.61;55.67;100437.80;1758543;80;21065;-73
2022/09/03 03:33:39;;;;;;;14.75;8.00;;;;;;;14.58;55.99;100446.16;1718434;83;21866;-76
2022/09/03 03:36:10;;;;;;;15.85;8.28;;;;;;;14.56;55.83;100446.81;1786394;80;21461;-75
2022/09/03 03:38:36;;;;;;;12.98;7.33;;;;;;;14.53;55.64;100453.36;1759378;80;21067;-75
2022/09/03 03:41:14;;;;;;;13.13;6.50;;;;;;;14.51;55.45;100450.55;1780068;78;21550;-75
2022/09/03 03:43:41;;;;;;;11.03;6.05;;;;;;;14.49;55.20;100449.89;1720314;82;21053;-74
2022/09/03 03:46:07;;;;;;;12.40;6.25;;;;;;;14.48;55.24;100443.69;1772274;78;21814;-75
2022/09/03 03:48:35;;;;;;;13.90;7.10;;;;;;;14.50;54.89;100450.20;1777113;78;21050;-75
2022/09/03 03:51:03;;;;;;;16.23;7.58;;;;;;;14.53;54.72;100449.86;1782946;78;21054;-75
2022/09/03 03:53:32;;;;;;;13.22;6.78;;;;;;;14.54;54.70;100439.00;1778120;78;20995;-76
2022/09/03 03:56:02;;;;;;;14.25;7.30;;;;;;;14.57;54.49;100447.70;1782261;78;21668;-75
2022/09/03 03:58:30;;;;;;;12.58;6.45;;;;;;;14.58;54.61;100450.17;1778262;80;21269;-74
2022/09/03 04:01:06;;;;;;;16.52;6.40;;;;;;;14.62;54.47;100451.52;1765350;78;21030;-75
2022/09/03 04:03:34;;;;;;;18.25;7.05;;;;;;;14.65;54.20;100450.31;1762544;80;21065;-74
2022/09/03 04:06:01;;;;;;;16.27;7.55;;;;;;;14.70;53.92;100452.78;1748552;80;21097;-75
2022/09/03 04:08:28;;;;;;;19.27;7.22;;;;;;;14.73;53.68;100443.05;1763756;80;21020;-76
2022/09/03 04:11:00;;;;;;;15.88;7.35;;;;;;;14.75;53.66;100445.05;1772593;79;21186;-75
2022/09/03 04:13:31;;;;;;;20.17;8.87;;;;;;;14.78;53.60;100448.40;1775994;80;21025;-75
2022/09/03 04:16:12;;;;;;;18.82;7.22;;;;;;;14.79;53.54;100454.88;1763981;80;21835;-74
2022/09/03 04:18:39;;;;;;;18.27;6.85;;;;;;;14.80;53.54;100460.58;1745631;80;21535;-75
2022/09/03 04:21:11;;;;;;;15.70;6.10;;;;;;;14.81;53.49;100471.59;1780549;80;21500;-75
2022/09/03 04:23:41;;;;;;;14.65;6.17;;;;;;;14.81;53.53;100482.80;1776570;80;21190;-74
2022/09/03 04:26:10;;;;;;;10.43;6.05;;;;;;;14.84;53.25;100478.44;1757283;80;21043;-75
2022/09/03 04:28:37;;;;;;;16.97;7.33;;;;;;;14.85;53.13;100479.58;1772521;79;21057;-73
2022/09/03 04:31:06;;;;;;;13.25;6.65;;;;;;;14.85;53.27;100469.39;1760811;79;21026;-75
2022/09/03 04:33:33;;;;;;;13.98;6.90;;;;;;;14.90;53.39;100472.38;1707483;83;21541;-76
2022/09/03 04:36:13;;;;;;;14.07;7.22;;;;;;;14.94;53.41;100471.83;1711352;83;21636;-75
2022/09/03 04:38:41;;;;;;;13.15;6.90;;;;;;;14.98;53.21;100465.61;1736587;80;21091;-74
2022/09/03 04:41:10;;;;;;;17.17;6.90;;;;;;;15.02;53.27;100467.44;1704664;82;21082;-75
2022/09/03 04:43:37;;;;;;;14.87;6.45;;;;;;;15.07;53.50;100466.40;1710483;82;21556;-74
2022/09/03 04:46:05;;;;;;;12.23;6.35;;;;;;;15.11;53.44;100460.50;1736657;82;21507;-75
2022/09/03 04:48:35;;;;;;;10.65;6.20;;;;;;;15.20;53.21;100462.61;1723855;82;21115;-72
2022/09/03 04:51:05;;;;;;;12.07;5.65;;;;;;;15.24;53.66;100458.55;1733792;80;21588;-76
2022/09/03 04:53:33;;;;;;;15.38;6.53;;;;;;;15.25;53.30;100457.52;1731918;80;21042;-75
2022/09/03 04:56:00;;;;;;;12.20;6.97;;;;;;;15.27;54.01;100460.84;1740402;82;21027;-75
2022/09/03 04:58:27;;;;;;;13.08;6.53;;;;;;;15.28;54.52;100461.19;1739050;82;21042;-73
2022/09/03 05:00:54;;;;;;;16.45;6.50;;;;;;;15.31;54.18;100462.66;1733707;82;21144;-76
2022/09/03 05:03:21;;;;;;;12.65;6.17;;;;;;;15.33;53.99;100461.97;1740048;82;21067;-73
2022/09/03 05:05:54;;;;;;;13.20;6.50;;;;;;;15.38;54.25;100464.95;1726351;82;21095;-76
2022/09/03 05:08:22;;;;;;;16.10;6.50;;;;;;;15.43;54.51;100466.58;1721660;82;21064;-75
2022/09/03 05:10:49;;;;;;;12.45;6.60;;;;;;;15.45;54.97;100470.39;1712984;82;21032;-73
2022/09/03 05:13:17;;;;;;;14.93;6.97;;;;;;;15.45;54.93;100467.23;1699834;82;21182;-75
2022/09/03 05:15:44;;;;;;;15.05;7.17;;;;;;;15.46;55.59;100460.02;1713289;82;21114;-71
2022/09/03 05:18:12;;;;;;;16.35;7.55;;;;;;;15.46;55.33;100452.81;1704918;83;21068;-75
2022/09/03 05:20:39;;;;;;;22.45;7.33;;;;;;;15.47;54.64;100453.64;1709474;83;21104;-74
2022/09/03 05:23:06;;;;;;;17.32;7.87;;;;;;;15.49;54.25;100455.14;1701811;82;21110;-75
2022/09/03 05:25:34;;;;;;;16.55;6.95;;;;;;;15.51;54.22;100452.25;1730635;80;21145;-75
2022/09/03 05:28:01;;;;;;;23.45;7.45;;;;;;;15.53;54.59;100457.77;1691830;84;21079;-73
2022/09/03 05:30:27;;;;;;;16.37;7.20;;;;;;;15.55;54.67;100456.25;1713194;81;21014;-77
2022/09/03 05:32:54;;;;;;;19.05;8.03;;;;;;;15.56;55.14;100461.92;1709547;83;21065;-76
2022/09/03 05:35:20;;;;;;;17.17;7.45;;;;;;;15.56;55.69;100459.24;1708934;83;21542;-75
2022/09/03 05:37:47;;;;;;;19.77;7.75;;;;;;;15.58;56.26;100453.19;1702625;83;21136;-77
2022/09/03 05:40:14;;;;;;;20.52;7.50;;;;;;;15.63;56.40;100458.02;1699968;81;21017;-76
2022/09/03 05:42:40;;;;;;;18.90;8.00;;;;;;;15.64;56.32;100462.34;1703183;83;21007;-75
2022/09/03 05:45:09;;;;;;;13.38;7.80;;;;;;;15.68;56.53;100467.65;1710183;83;21095;-75
2022/09/03 05:47:38;;;;;;;22.22;7.75;;;;;;;15.70;57.29;100470.48;1703538;83;21025;-76
2022/09/03 05:50:09;;;;;;;17.82;7.42;;;;;;;15.73;57.15;100463.95;1696199;83;21255;-75
2022/09/03 05:52:37;;;;;;;22.20;8.50;;;;;;;15.75;56.99;100468.62;1694863;83;21030;-74
2022/09/03 05:55:04;;;;;;;18.37;8.50;;;;;;;15.75;56.86;100473.16;1705068;83;21132;-76
2022/09/03 05:57:31;;;;;;;17.95;8.08;;;;;;;15.74;56.55;100465.60;1708492;83;21062;-77
2022/09/03 05:59:59;;;;;;;16.05;7.72;;;;;;;15.76;56.19;100468.95;1685880;83;21097;-76
2022/09/03 06:02:26;;;;;;;15.05;7.10;;;;;;;15.80;56.34;100466.23;1710918;82;21857;-81
2022/09/03 06:04:56;;;;;;;17.40;7.25;;;;;;;15.84;56.18;100463.98;1708226;83;21575;-84
2022/09/03 06:07:24;;;;;;;18.80;8.18;;;;;;;15.85;56.51;100461.13;1702268;83;21030;-82
2022/09/03 06:09:51;;;;;;;17.73;8.25;;;;;;;15.87;56.76;100451.05;1705560;83;21065;-83
2022/09/03 06:12:17;;;;;;;20.08;7.08;;;;;;;15.92;56.52;100455.36;1697721;83;21045;-81
2022/09/03 06:14:46;;;;;;;17.00;7.70;;;;;;;15.98;56.24;100452.97;1697246;83;21698;-84
2022/09/03 06:17:13;;;;;;;16.57;7.00;;;;;;;16.04;55.97;100449.53;1697753;83;21065;-84
2022/09/03 06:19:40;;;;;;;18.48;6.53;;;;;;;16.12;55.88;100445.41;1705405;83;21532;-82
2022/09/03 06:22:07;;;;;;;14.93;6.62;;;;;;;16.21;55.55;100442.95;1695048;83;21541;-83
2022/09/03 06:24:34;;;;;;;14.58;7.12;;;;;;;16.33;55.38;100445.97;1706305;83;22147;-83
2022/09/03 06:27:03;;;;;;;14.90;7.03;;;;;;;16.45;55.13;100448.98;1703382;83;21022;-82
2022/09/03 06:29:30;;;;;;;13.48;7.20;;;;;;;16.57;54.94;100447.45;1705507;83;21010;-81
2022/09/03 06:31:56;;;;;;;13.78;6.90;;;;;;;16.70;54.72;100447.59;1697294;81;20922;-82
2022/09/03 06:34:26;;;;;;;12.85;6.58;;;;;;;16.85;54.54;100446.75;1708396;83;21021;-82
2022/09/03 06:36:53;;;;;;;11.78;5.95;;;;;;;17.01;54.39;100442.45;1709980;83;21038;-79
2022/09/03 06:39:19;;;;;;;11.45;7.03;;;;;;;17.20;54.09;100447.67;1689698;83;21116;-79
2022/09/03 06:41:47;;;;;;;14.25;7.28;;;;;;;17.37;53.53;100453.59;1707262;83;21055;-80
2022/09/03 06:44:14;;;;;;;18.23;7.17;;;;;;;17.52;53.13;100449.97;1663146;84;21070;-79
2022/09/03 06:46:44;;;;;;;9.80;6.40;;;;;;;17.66;52.51;100457.10;1676714;85;21047;-79
2022/09/03 06:49:11;;;;;;;13.15;6.70;;;;;;;17.79;52.00;100451.81;1668123;85;21027;-78
2022/09/03 06:51:39;;;;;;;9.85;6.47;;;;;;;17.90;51.68;100454.47;1679640;85;21296;-80
2022/09/03 06:54:08;;;;;;;13.60;6.53;;;;;;;18.00;51.64;100457.64;1684666;85;21044;-80
2022/09/03 06:56:36;;;;;;;8.60;6.03;;;;;;;18.11;51.25;100456.23;1683314;85;21070;-82
2022/09/03 06:59:12;;;;;;;12.85;6.80;;;;;;;18.23;50.60;100464.55;1661984;85;21054;-80
2022/09/03 07:01:39;;;;;;;11.97;6.95;;;;;;;18.31;50.59;100463.05;1687287;83;21061;-79
2022/09/03 07:04:07;;;;;;;12.28;5.78;;;;;;;18.46;50.51;100456.14;1725073;83;21259;-79
2022/09/03 07:06:38;;;;;;;10.23;6.70;;;;;;;18.57;50.05;100454.73;1702315;83;21550;-78
2022/09/03 07:09:06;;;;;;;12.50;6.45;;;;;;;18.58;49.58;100459.92;1725113;83;21091;-78
2022/09/03 07:11:36;;;;;;;12.35;6.05;;;;;;;18.57;49.76;100454.22;1724899;82;22258;-79
2022/09/03 07:14:03;;;;;;;11.80;6.50;;;;;;;18.55;49.65;100454.94;1726028;83;21115;-80
2022/09/03 07:16:33;;;;;;;12.37;5.60;;;;;;;18.57;49.80;100456.91;1714974;83;21426;-81
2022/09/03 07:19:02;;;;;;;12.15;6.10;;;;;;;18.57;49.49;100461.47;1713734;83;21017;-81
2022/09/03 07:21:32;;;;;;;13.75;6.33;;;;;;;18.55;49.36;100464.35;1707752;83;21069;-81
2022/09/03 07:23:59;;;;;;;10.15;6.40;;;;;;;18.53;49.52;100465.08;1711698;82;21073;-79
2022/09/03 07:26:29;;;;;;;11.70;6.08;;;;;;;18.60;49.52;100461.89;1765895;80;21004;-81
2022/09/03 07:28:57;;;;;;;9.15;5.80;;;;;;;18.71;49.39;100458.28;1761654;80;21503;-80
2022/09/03 07:31:33;;;;;;;10.28;6.17;;;;;;;18.84;48.88;100466.42;1776795;80;21027;-80
2022/09/03 07:34:05;;;;;;;12.53;6.42;;;;;;;18.96;48.53;100471.49;1741971;80;21036;-78
2022/09/03 07:36:45;;;;;;;10.50;6.08;;;;;;;19.07;48.22;100469.25;1751203;80;20988;-79
2022/09/03 07:39:14;;;;;;;12.65;6.17;;;;;;;19.14;47.94;100466.87;1784113;80;20973;-80
2022/09/03 07:41:41;;;;;;;8.40;5.97;;;;;;;19.17;47.74;100465.09;1782160;80;22115;-79
2022/09/03 07:44:07;;;;;;;10.80;6.00;;;;;;;19.26;47.49;100467.08;1772148;80;21060;-79
2022/09/03 07:47:25;;;;;;;8.80;5.97;;;;;;;19.44;47.07;100460.52;1879378;74;22383;-79
2022/09/03 07:49:51;;;;;;;9.55;5.70;;;;;;;19.50;46.88;100457.51;1836928;77;20981;-80
2022/09/03 07:52:18;;;;;;;7.92;5.47;;;;;;;19.59;46.79;100462.99;1858515;77;21775;-80
2022/09/03 07:54:44;;;;;;;8.58;6.05;;;;;;;19.72;46.78;100458.64;1857192;75;21000;-81
2022/09/03 07:57:11;;;;;;;10.85;6.37;;;;;;;19.84;46.32;100456.97;1845639;77;21293;-79
2022/09/03 07:59:37;;;;;;;11.65;6.00;;;;;;;19.87;46.12;100459.22;1858254;77;21003;-79
2022/09/03 08:02:05;;;;;;;9.33;6.42;;;;;;;19.83;46.15;100450.73;1859952;77;21095;-78
2022/09/03 08:04:34;;;;;;;10.65;5.40;;;;;;;19.84;45.98;100458.31;1858713;77;21622;-80
2022/09/03 08:07:02;;;;;;;9.43;6.10;;;;;;;19.81;46.00;100462.24;1860110;75;20945;-77
2022/09/03 08:09:31;;;;;;;10.25;5.70;;;;;;;19.78;46.24;100466.73;1867824;75;20996;-80
2022/09/03 08:11:58;;;;;;;7.90;5.90;;;;;;;19.74;46.34;100457.41;1853136;75;21080;-78
2022/09/03 08:14:25;;;;;;;12.78;6.45;;;;;;;19.74;46.37;100460.60;1859588;77;21019;-77
2022/09/03 08:16:53;;;;;;;14.75;6.67;;;;;;;19.78;46.38;100462.69;1855942;75;21260;-81
2022/09/03 08:19:19;;;;;;;9.83;5.60;;;;;;;19.81;46.20;100464.12;1817552;77;21313;-72
2022/09/03 08:21:46;;;;;;;10.85;5.75;;;;;;;19.87;46.10;100463.27;1859360;76;21083;-73
2022/09/03 08:24:16;;;;;;;11.90;6.30;;;;;;;19.95;45.87;100460.86;1852906;75;21033;-77
2022/09/03 08:26:43;;;;;;;8.38;6.42;;;;;;;20.01;45.76;100455.47;1834917;77;21071;-75
2022/09/03 08:29:10;;;;;;;11.90;6.40;;;;;;;20.06;45.45;100452.64;1846745;77;21150;-72
2022/09/03 08:31:37;;;;;;;10.38;6.20;;;;;;;20.08;45.51;100462.17;1845159;75;21024;-76
2022/09/03 08:34:05;;;;;;;14.85;6.12;;;;;;;20.13;45.20;100462.36;1847755;77;21001;-75
2022/09/03 08:36:35;;;;;;;12.23;7.05;;;;;;;20.23;45.39;100460.56;1845588;75;20985;-75
2022/09/03 08:39:03;;;;;;;12.37;6.78;;;;;;;20.29;45.35;100457.53;1842583;75;21048;-74
2022/09/03 08:41:47;;;;;;;16.40;6.92;;;;;;;20.34;45.28;100457.69;1855617;77;21089;-74
2022/09/03 08:44:35;;;;;;;10.13;6.20;;;;;;;20.43;45.40;100455.06;1841084;75;21049;-73
2022/09/03 08:47:15;;;;;;;9.55;5.95;;;;;;;20.50;45.20;100445.59;1822919;75;21045;-73
2022/09/03 08:49:57;;;;;;;14.30;6.85;;;;;;;20.53;45.33;100443.80;1823174;77;21028;-76
2022/09/03 08:52:47;;;;;;;14.13;6.12;;;;;;;20.56;45.09;100440.14;1818099;77;21232;-74
2022/09/03 08:55:24;;;;;;;13.13;6.28;;;;;;;20.62;44.41;100435.78;1824000;77;21508;-78
2022/09/03 08:58:02;;;;;;;9.33;5.92;;;;;;;20.69;44.31;100423.61;1815990;77;21001;-76
2022/09/03 09:01:10;;;;;;;14.73;6.03;;;;;;;20.83;44.19;100423.81;1764252;78;21064;-76
2022/09/03 09:04:02;;;;;;;13.50;6.45;;;;;;;21.05;44.01;100423.43;1783435;78;20972;-77
2022/09/03 09:06:40;;;;;;;10.38;5.55;;;;;;;21.36;43.65;100420.67;1761328;80;21087;-76
2022/09/03 09:09:40;;;;;;;9.23;5.05;;;;;;;21.71;42.93;100421.98;1758933;80;21130;-74
2022/09/03 09:12:33;;;;;;;10.00;5.08;;;;;;;22.01;41.94;100424.77;1757882;80;21090;-74
2022/09/03 09:15:26;;;;;;;9.60;5.35;;;;;;;22.25;40.87;100420.84;1766929;80;20984;-73
2022/09/03 09:18:21;;;;;;;13.50;4.65;;;;;;;22.53;41.04;100419.72;1773647;80;21020;-73
2022/09/03 09:20:51;;;;;;;5.20;4.10;;;;;;;22.85;40.71;100414.55;1753409;81;21069;-73
2022/09/03 09:23:40;;;;;;;7.03;3.80;;;;;;;23.18;39.88;100409.14;1788699;78;21194;-74
2022/09/03 09:26:10;;;;;;;7.53;4.65;;;;;;;23.38;39.75;100404.75;1758049;80;21567;-76
2022/09/03 09:28:37;;;;;;;7.20;4.15;;;;;;;23.65;39.35;100409.14;1744144;80;21091;-75
2022/09/03 09:31:07;;;;;;;6.28;3.85;;;;;;;23.88;38.92;100411.01;1767019;79;21184;-76
2022/09/03 09:33:34;;;;;;;6.17;3.58;;;;;;;23.96;38.11;100409.27;1772636;79;21056;-75
2022/09/03 09:36:04;;;;;;;6.85;3.90;;;;;;;23.98;37.45;100415.28;1765098;80;21202;-74
2022/09/03 09:38:34;;;;;;;10.40;4.87;;;;;;;24.00;37.27;100425.36;1763013;79;21574;-74
2022/09/03 09:41:15;;;;;;;8.55;4.87;;;;;;;23.98;37.20;100412.56;1766866;79;21032;-76
2022/09/03 09:43:42;;;;;;;10.03;4.90;;;;;;;23.94;36.96;100415.47;1762183;80;21035;-74
2022/09/03 09:46:15;;;;;;;11.40;5.22;;;;;;;23.72;37.09;100416.08;1766917;79;21055;-74
2022/09/03 09:48:55;;;;;;;9.70;5.40;;;;;;;23.52;37.53;100411.55;1764256;79;21821;-74
2022/09/03 09:51:25;;;;;;;5.75;4.30;;;;;;;23.36;37.87;100414.46;1752200;79;21028;-75
2022/09/03 09:54:13;;;;;;;15.75;5.75;;;;;;;23.19;38.33;100417.59;1767555;80;21022;-74
2022/09/03 09:56:41;;;;;;;7.70;4.85;;;;;;;23.02;38.14;100416.87;1767303;80;21501;-77
2022/09/03 09:59:09;;;;;;;9.83;4.83;;;;;;;22.89;38.46;100417.09;1766521;79;21075;-74
2022/09/03 10:01:41;;;;;;;10.35;5.33;;;;;;;22.93;38.67;100419.12;1758897;79;21200;-75
2022/09/03 10:04:23;;;;;;;7.70;4.50;;;;;;;22.97;38.89;100420.30;1768249;80;20996;-76
2022/09/03 10:06:58;;;;;;;7.47;4.00;;;;;;;22.99;38.98;100415.19;1756498;80;24549;-73
2022/09/03 10:09:29;;;;;;;7.53;4.62;;;;;;;22.96;38.75;100416.46;1768139;79;21079;-74
2022/09/03 10:12:18;;;;;;;9.63;4.47;;;;;;;22.85;38.61;100417.27;1767353;80;21008;-75
2022/09/03 10:14:56;;;;;;;7.33;4.30;;;;;;;22.71;38.37;100418.01;1766201;80;21129;-75
2022/09/03 10:17:56;;;;;;;8.45;4.75;;;;;;;22.55;38.57;100420.31;1755760;80;21477;-75
2022/09/03 10:20:32;;;;;;;6.40;3.83;;;;;;;22.49;38.62;100429.37;1753766;79;21017;-73
2022/09/03 10:23:17;;;;;;;8.58;4.20;;;;;;;22.41;38.65;100424.28;1770206;79;21031;-74
2022/09/03 10:25:56;;;;;;;5.70;3.60;;;;;;;22.30;38.71;100419.64;1752978;80;21115;-72
2022/09/03 10:28:28;;;;;;;10.35;4.60;;;;;;;22.20;39.00;100418.80;1777180;78;21145;-75
2022/09/03 10:31:27;;;;;;;7.83;4.67;;;;;;;22.13;39.18;100422.12;1738486;80;21134;-73
2022/09/03 10:34:23;;;;;;;7.83;4.10;;;;;;;22.05;39.41;100419.20;1752198;80;21044;-75
2022/09/03 10:36:58;;;;;;;8.80;4.47;;;;;;;21.96;39.37;100409.73;1775167;78;21005;-75
2022/09/03 10:39:49;;;;;;;6.67;3.92;;;;;;;21.77;39.60;100409.76;1785076;80;21090;-76
2022/09/03 10:42:36;;;;;;;7.42;3.87;;;;;;;21.71;39.81;100413.87;1757900;80;21164;-75
2022/09/03 10:45:33;;;;;;;7.10;3.80;;;;;;;21.65;39.68;100410.72;1757691;81;21067;-75
2022/09/03 10:48:31;;;;;;;5.55;3.55;;;;;;;21.56;39.60;100406.97;1744252;81;21153;-75
2022/09/03 10:51:16;;;;;;;7.50;4.28;;;;;;;21.59;39.75;100401.62;1725625;81;21065;-73
2022/09/03 10:54:23;;;;;;;6.97;3.83;;;;;;;21.75;39.63;100399.70;1736157;80;21028;-72
2022/09/03 10:57:14;;;;;;;8.88;3.55;;;;;;;21.81;39.64;100391.20;1722864;82;21801;-75
2022/09/03 11:00:09;;;;;;;8.95;3.25;;;;;;;21.90;39.64;100398.47;1740956;81;21044;-76
2022/09/03 11:02:56;;;;;;;5.92;3.58;;;;;;;21.94;39.67;100396.96;1737700;81;21076;-75
2022/09/03 11:05:37;;;;;;;3.87;3.50;;;;;;;21.95;39.57;100399.98;1729095;81;21048;-76
2022/09/03 11:08:27;;;;;;;4.03;3.55;;;;;;;21.91;39.62;100405.02;1742397;80;21576;-75
2022/09/03 11:10:58;;;;;;;6.00;3.40;;;;;;;21.85;39.32;100403.22;1735963;80;21228;-75
2022/09/03 11:13:29;;;;;;;5.92;3.30;;;;;;;21.77;39.01;100400.83;1735200;81;20968;-75
2022/09/03 11:16:00;;;;;;;3.67;2.85;;;;;;;21.75;39.26;100397.49;1733612;80;21074;-79
2022/09/03 11:18:50;;;;;;;4.12;3.67;;;;;;;21.77;39.03;100397.59;1731476;81;21052;-80
2022/09/03 11:21:20;;;;;;;4.92;2.98;;;;;;;21.82;39.08;100393.37;1735997;80;21027;-79
2022/09/03 11:23:51;;;;;;;4.95;3.52;;;;;;;21.89;38.96;100390.08;1731050;80;21838;-79
2022/09/03 11:26:18;;;;;;;6.42;3.37;;;;;;;21.96;38.79;100386.23;1735882;82;21029;-76
2022/09/03 11:28:54;;;;;;;5.75;3.08;;;;;;;22.11;38.68;100379.05;1734824;81;21099;-78
2022/09/03 11:31:32;;;;;;;4.55;3.15;;;;;;;22.28;38.66;100373.86;1736110;80;21107;-78
2022/09/03 11:34:20;;;;;;;4.47;3.27;;;;;;;22.47;38.64;100375.16;1736039;82;21127;-79
2022/09/03 11:36:47;;;;;;;4.28;3.22;;;;;;;22.51;38.58;100371.75;1745694;81;21971;-79
2022/09/03 11:39:27;;;;;;;4.37;3.50;;;;;;;22.51;38.81;100376.34;1738557;80;21526;-78
2022/09/03 11:42:13;;;;;;;5.87;3.22;;;;;;;22.48;39.10;100372.73;1731475;81;21092;-78
2022/09/03 11:44:42;;;;;;;7.15;3.72;;;;;;;22.45;39.21;100375.92;1736407;80;21041;-79
2022/09/03 11:47:24;;;;;;;3.95;3.15;;;;;;;22.36;39.14;100378.12;1750322;79;21539;-78
2022/09/03 11:49:52;;;;;;;4.10;3.37;;;;;;;22.32;38.77;100370.17;1725853;80;21146;-79
2022/09/03 11:52:27;;;;;;;6.20;3.75;;;;;;;22.26;38.92;100362.44;1756578;81;21021;-77